createdAt,value
2023-04-28T00:00:25.142Z,34.50
2023-04-28T00:05:40.175Z,35.37
2023-04-28T00:08:16.753Z,35.57
2023-04-28T00:10:55.262Z,41.58
2023-04-28T00:13:31.982Z,36.80
2023-04-28T00:16:09.526Z,35.78
2023-04-28T00:18:52.761Z,35.17
2023-04-28T00:21:32.441Z,33.45
2023-04-28T00:24:08.877Z,33.35
2023-04-28T00:26:44.835Z,32.28
2023-04-28T00:29:21.353Z,41.45
2023-04-28T00:31:59.292Z,42.17
2023-04-28T00:34:40.119Z,35.65
2023-04-28T00:37:20.806Z,33.33
2023-04-28T00:40:00.487Z,36.20
2023-04-28T00:42:40.214Z,39.10
2023-04-28T00:45:21.784Z,34.30
2023-04-28T00:48:00.878Z,31.42
2023-04-28T00:50:38.062Z,36.90
2023-04-28T00:53:19.777Z,35.45
2023-04-28T00:55:57.528Z,38.20
2023-04-28T00:58:33.949Z,33.47
2023-04-28T01:01:11.849Z,36.80
2023-04-28T01:03:49.359Z,33.55
2023-04-28T01:06:28.986Z,37.00
2023-04-28T01:09:11.670Z,30.07
2023-04-28T01:11:46.460Z,31.23
2023-04-28T01:14:30.824Z,34.43
2023-04-28T01:17:05.575Z,33.60
2023-04-28T01:19:49.885Z,33.10
2023-04-28T01:22:26.477Z,41.13
2023-04-28T01:25:05.471Z,36.22
2023-04-28T01:27:45.488Z,30.10
2023-04-28T01:30:24.930Z,33.30
2023-04-28T01:33:01.372Z,29.52
2023-04-28T01:35:38.933Z,28.45
2023-04-28T01:38:17.290Z,28.58
2023-04-28T01:40:59.233Z,26.95
2023-04-28T01:43:36.993Z,27.83
2023-04-28T01:46:10.953Z,32.50
2023-04-28T01:48:47.834Z,30.17
2023-04-28T01:51:24.576Z,32.67
2023-04-28T01:54:01.837Z,31.65
2023-04-28T01:56:41.983Z,28.08
2023-04-28T01:59:25.635Z,31.80
2023-04-28T02:02:01.349Z,27.90
2023-04-28T02:04:38.847Z,31.08
2023-04-28T02:07:14.421Z,31.70
2023-04-28T02:09:55.937Z,29.15
2023-04-28T02:12:37.569Z,33.22
2023-04-28T02:15:17.532Z,31.67
2023-04-28T02:17:53.482Z,30.00
2023-04-28T02:20:33.408Z,34.03
2023-04-28T02:23:14.486Z,29.23
2023-04-28T02:25:51.760Z,31.70
2023-04-28T02:28:34.455Z,27.42
2023-04-28T02:31:17.464Z,25.05
2023-04-28T02:33:55.197Z,27.67
2023-04-28T02:36:35.370Z,29.92
2023-04-28T02:39:15.954Z,25.02
2023-04-28T02:41:52.506Z,31.10
2023-04-28T02:44:34.316Z,25.52
2023-04-28T02:47:08.890Z,29.10
2023-04-28T02:49:45.372Z,24.25
2023-04-28T02:52:24.206Z,28.90
2023-04-28T02:55:07.099Z,33.00
2023-04-28T02:57:44.468Z,29.55
2023-04-28T03:00:25.603Z,22.37
2023-04-28T03:03:03.153Z,23.60
2023-04-28T03:05:39.262Z,24.77
2023-04-28T03:08:19.517Z,21.90
2023-04-28T03:10:57.538Z,26.60
2023-04-28T03:13:33.500Z,24.73
2023-04-28T03:16:17.689Z,24.60
2023-04-28T03:18:54.169Z,21.17
2023-04-28T03:21:33.015Z,21.37
2023-04-28T03:24:11.167Z,22.00
2023-04-28T03:26:48.750Z,19.83
2023-04-28T03:29:26.180Z,19.33
2023-04-28T03:32:07.942Z,23.80
2023-04-28T03:34:45.886Z,23.42
2023-04-28T03:37:25.309Z,21.92
2023-04-28T03:40:05.516Z,18.45
2023-04-28T03:43:04.423Z,24.50
2023-04-28T03:45:47.365Z,17.87
2023-04-28T03:51:07.269Z,19.70
2023-04-28T03:53:45.993Z,18.50
2023-04-28T03:56:26.298Z,22.23
2023-04-28T03:59:03.933Z,22.10
2023-04-28T04:01:42.270Z,18.33
2023-04-28T04:04:24.612Z,19.33
2023-04-28T04:07:01.820Z,20.50
2023-04-28T04:09:43.298Z,20.98
2023-04-28T04:12:24.767Z,18.85
2023-04-28T04:15:01.541Z,19.58
2023-04-28T04:17:40.425Z,21.75
2023-04-28T04:20:25.855Z,20.52
2023-04-28T04:23:06.197Z,15.90
2023-04-28T04:25:45.947Z,19.02
2023-04-28T04:28:22.372Z,19.95
2023-04-28T04:31:00.992Z,17.58
2023-04-28T04:33:37.794Z,19.27
2023-04-28T04:36:24.679Z,22.10
2023-04-28T04:39:03.107Z,17.60
2023-04-28T04:41:39.738Z,21.50
2023-04-28T04:44:38.371Z,21.50
2023-04-28T04:47:19.450Z,26.30
2023-04-28T04:49:58.808Z,24.83
2023-04-28T04:52:38.791Z,20.25
2023-04-28T04:55:24.408Z,25.08
2023-04-28T05:00:57.313Z,28.13
2023-04-28T05:03:38.594Z,25.30
2023-04-28T05:06:26.180Z,25.73
2023-04-28T05:09:10.860Z,22.70
2023-04-28T05:11:57.111Z,25.50
2023-04-28T05:14:34.111Z,27.08
2023-04-28T05:17:17.601Z,32.28
2023-04-28T05:19:56.207Z,29.63
2023-04-28T05:22:38.258Z,67.35
2023-04-28T05:25:17.963Z,47.42
2023-04-28T05:27:55.361Z,98.93
2023-04-28T05:30:31.712Z,80.63
2023-04-28T05:33:07.973Z,88.40
2023-04-28T05:35:44.085Z,40.72
2023-04-28T05:38:22.766Z,28.77
2023-04-28T05:41:04.101Z,25.40
2023-04-28T05:43:41.977Z,35.88
2023-04-28T05:46:30.010Z,28.70
2023-04-28T05:49:11.276Z,27.55
2023-04-28T05:51:47.658Z,26.67
2023-04-28T05:54:25.104Z,31.38
2023-04-28T05:57:07.165Z,29.13
2023-04-28T05:59:43.085Z,28.65
2023-04-28T06:02:20.546Z,28.13
2023-04-28T06:04:59.466Z,32.53
2023-04-28T06:07:36.715Z,28.03
2023-04-28T06:10:17.101Z,27.02
2023-04-28T06:12:55.700Z,30.10
2023-04-28T06:15:32.278Z,31.38
2023-04-28T06:18:11.419Z,26.75
2023-04-28T06:20:49.992Z,28.98
2023-04-28T06:23:26.408Z,23.67
2023-04-28T06:26:02.690Z,24.50
2023-04-28T06:28:43.738Z,24.37
2023-04-28T06:31:19.166Z,25.65
2023-04-28T06:33:53.284Z,23.50
2023-04-28T06:36:31.983Z,24.90
2023-04-28T06:41:44.875Z,26.80
2023-04-28T06:44:26.644Z,28.13
2023-04-28T06:47:04.723Z,25.70
2023-04-28T06:49:44.612Z,22.70
2023-04-28T06:52:27.163Z,24.92
2023-04-28T06:55:02.037Z,26.97
2023-04-28T06:57:39.699Z,24.95
2023-04-28T07:02:55.051Z,26.55
2023-04-28T07:05:32.034Z,19.80
2023-04-28T07:08:21.038Z,29.38
2023-04-28T07:10:58.024Z,23.60
2023-04-28T07:13:37.633Z,20.70
2023-04-28T07:16:18.446Z,22.80
2023-04-28T07:18:56.397Z,26.73
2023-04-28T07:21:33.662Z,22.52
2023-04-28T07:24:09.661Z,23.30
2023-04-28T07:29:24.957Z,22.27
2023-04-28T07:32:07.531Z,23.35
2023-04-28T07:34:44.485Z,21.80
2023-04-28T07:37:22.704Z,20.20
2023-04-28T07:40:00.319Z,18.45
2023-04-28T07:42:34.384Z,17.80
2023-04-28T07:45:15.148Z,20.60
2023-04-28T07:47:49.608Z,19.42
2023-04-28T07:50:29.796Z,17.58
2023-04-28T07:53:07.278Z,19.27
2023-04-28T07:55:55.278Z,15.35
2023-04-28T07:58:38.080Z,17.43
2023-04-28T08:01:13.973Z,19.63
2023-04-28T08:03:51.370Z,17.55
2023-04-28T08:06:35.055Z,18.63
2023-04-28T08:09:05.987Z,16.20
2023-04-28T08:11:44.945Z,15.40
2023-04-28T08:14:24.908Z,14.35
2023-04-28T08:17:00.672Z,12.57
2023-04-28T08:22:38.009Z,12.95
2023-04-28T08:25:16.536Z,9.15
2023-04-28T08:27:57.593Z,8.35
2023-04-28T08:30:34.514Z,10.73
2023-04-28T08:33:12.575Z,12.00
2023-04-28T08:35:50.666Z,11.73
2023-04-28T08:38:36.613Z,16.10
2023-04-28T08:41:14.210Z,11.40
2023-04-28T08:43:56.145Z,13.73
2023-04-28T08:46:32.382Z,12.63
2023-04-28T08:49:12.954Z,8.23
2023-04-28T08:51:51.156Z,8.82
2023-04-28T08:54:29.977Z,9.95
2023-04-28T08:57:06.917Z,12.52
2023-04-28T08:59:45.034Z,10.85
2023-04-28T09:02:21.540Z,9.85
2023-04-28T09:05:03.558Z,9.68
2023-04-28T09:07:42.397Z,11.85
2023-04-28T09:10:28.037Z,9.02
2023-04-28T09:13:06.444Z,7.30
2023-04-28T09:15:45.940Z,12.85
2023-04-28T09:18:21.943Z,16.23
2023-04-28T09:21:05.872Z,12.30
2023-04-28T09:24:03.655Z,13.60
2023-04-28T09:26:57.163Z,10.65
2023-04-28T09:29:33.113Z,11.40
2023-04-28T09:32:20.421Z,12.35
2023-04-28T09:35:12.516Z,12.65
2023-04-28T09:37:51.770Z,13.18
2023-04-28T09:40:33.442Z,15.00
2023-04-28T09:43:21.983Z,12.85
2023-04-28T09:45:58.865Z,11.05
2023-04-28T09:48:38.611Z,11.32
2023-04-28T09:51:36.494Z,10.38
2023-04-28T09:54:11.328Z,11.83
2023-04-28T09:56:57.347Z,11.55
2023-04-28T09:59:41.961Z,9.95
2023-04-28T10:02:42.817Z,10.90
2023-04-28T10:05:40.806Z,9.32
2023-04-28T10:08:17.878Z,10.65
2023-04-28T10:10:58.728Z,12.05
2023-04-28T10:13:51.225Z,9.88
2023-04-28T10:16:31.150Z,13.60
2023-04-28T10:19:44.212Z,10.90
2023-04-28T10:22:43.015Z,15.27
2023-04-28T10:25:43.256Z,8.68
2023-04-28T10:28:43.649Z,10.20
2023-04-28T10:31:25.800Z,10.67
2023-04-28T10:34:05.106Z,8.77
2023-04-28T10:36:39.854Z,10.65
2023-04-28T10:39:20.006Z,13.95
2023-04-28T10:42:00.028Z,10.43
2023-04-28T10:44:48.307Z,16.73
2023-04-28T10:47:25.110Z,7.50
2023-04-28T10:50:14.056Z,10.98
2023-04-28T10:52:55.162Z,9.90
2023-04-28T10:55:37.378Z,7.20
2023-04-28T10:58:43.345Z,9.18
2023-04-28T11:01:43.379Z,7.90
2023-04-28T11:04:21.710Z,5.55
2023-04-28T11:07:19.580Z,12.60
2023-04-28T11:09:50.350Z,7.15
2023-04-28T11:12:25.540Z,11.63
2023-04-28T11:15:03.797Z,9.65
2023-04-28T11:17:43.652Z,9.10
2023-04-28T11:20:20.332Z,8.25
2023-04-28T11:23:00.408Z,8.32
2023-04-28T11:25:59.537Z,10.73
2023-04-28T11:28:38.356Z,9.35
2023-04-28T11:31:24.255Z,7.45
2023-04-28T11:34:07.542Z,6.55
2023-04-28T11:36:49.633Z,8.90
2023-04-28T11:39:31.520Z,9.60
2023-04-28T11:42:12.819Z,7.10
2023-04-28T11:44:47.994Z,10.95
2023-04-28T11:47:38.086Z,9.23
2023-04-28T11:50:37.461Z,7.05
2023-04-28T11:53:13.349Z,6.32
2023-04-28T11:55:49.183Z,9.77
2023-04-28T11:58:28.280Z,10.73
2023-04-28T12:01:15.853Z,7.00
2023-04-28T12:03:55.783Z,6.30
2023-04-28T12:06:32.122Z,6.60
2023-04-28T12:09:21.837Z,8.10
2023-04-28T12:11:59.283Z,6.00
2023-04-28T12:14:36.177Z,5.32
2023-04-28T12:17:13.606Z,11.35
2023-04-28T12:19:56.456Z,6.18
2023-04-28T12:22:33.888Z,6.80
2023-04-28T12:25:14.451Z,6.35
2023-04-28T12:27:51.148Z,6.22
2023-04-28T12:30:29.896Z,6.90
2023-04-28T12:33:06.316Z,5.40
2023-04-28T12:35:47.461Z,9.00
2023-04-28T12:38:22.721Z,6.68
2023-04-28T12:41:00.121Z,6.00
2023-04-28T12:43:35.923Z,8.43
2023-04-28T12:48:49.820Z,5.88
2023-04-28T12:51:31.774Z,7.63
2023-04-28T12:54:09.589Z,8.55
2023-04-28T12:56:49.377Z,7.50
2023-04-28T12:59:29.566Z,4.70
2023-04-28T13:02:05.267Z,4.28
2023-04-28T13:04:40.680Z,6.05
2023-04-28T13:07:18.844Z,8.63
2023-04-28T13:09:55.246Z,4.93
2023-04-28T13:12:34.058Z,6.90
2023-04-28T13:15:12.193Z,5.57
2023-04-28T13:17:50.656Z,6.63
2023-04-28T13:20:27.789Z,6.55
2023-04-28T13:23:08.555Z,9.35
2023-04-28T13:25:46.668Z,7.18
2023-04-28T13:28:21.741Z,4.70
2023-04-28T13:31:01.175Z,5.00
2023-04-28T13:33:40.179Z,7.32
2023-04-28T13:36:16.579Z,3.25
2023-04-28T13:38:55.863Z,5.43
2023-04-28T13:41:33.104Z,6.90
2023-04-28T13:44:15.892Z,7.13
2023-04-28T13:46:50.118Z,5.20
2023-04-28T13:49:38.766Z,4.80
2023-04-28T13:52:14.836Z,3.10
2023-04-28T13:54:54.774Z,3.77
2023-04-28T13:57:32.378Z,4.35
2023-04-28T14:00:14.727Z,8.55
2023-04-28T14:02:52.799Z,8.85
2023-04-28T14:05:36.066Z,4.15
2023-04-28T14:08:21.845Z,6.10
2023-04-28T14:11:08.088Z,7.65
2023-04-28T14:13:44.925Z,6.82
2023-04-28T14:16:23.954Z,6.45
2023-04-28T14:19:00.757Z,5.05
2023-04-28T14:21:38.265Z,5.25
2023-04-28T14:24:13.953Z,7.00
2023-04-28T14:26:53.422Z,8.45
2023-04-28T14:29:33.075Z,7.35
2023-04-28T14:32:14.861Z,9.25
2023-04-28T14:34:52.676Z,8.38
2023-04-28T14:37:29.382Z,6.00
2023-04-28T14:40:07.948Z,12.10
2023-04-28T14:42:48.461Z,4.65
2023-04-28T14:45:28.574Z,3.58
2023-04-28T14:48:08.045Z,6.30
2023-04-28T14:50:45.233Z,7.20
2023-04-28T14:53:25.202Z,4.53
2023-04-28T14:56:17.213Z,8.17
2023-04-28T14:58:58.945Z,5.68
2023-04-28T15:01:40.865Z,6.80
2023-04-28T15:04:17.606Z,5.30
2023-04-28T15:06:58.914Z,4.90
2023-04-28T15:09:37.432Z,7.57
2023-04-28T15:12:18.808Z,4.93
2023-04-28T15:15:01.647Z,5.30
2023-04-28T15:17:41.768Z,4.28
2023-04-28T15:20:22.336Z,4.75
2023-04-28T15:23:15.455Z,4.95
2023-04-28T15:25:55.351Z,4.13
2023-04-28T15:28:33.464Z,5.25
2023-04-28T15:31:14.015Z,3.35
2023-04-28T15:34:07.171Z,6.50
2023-04-28T15:36:44.662Z,4.73
2023-04-28T15:39:27.357Z,9.25
2023-04-28T15:42:13.276Z,4.55
2023-04-28T15:44:52.064Z,4.15
2023-04-28T15:50:47.392Z,26.00
2023-04-28T15:53:30.527Z,14.10
2023-04-28T16:48:39.715Z,6.60
2023-04-28T18:23:45.701Z,6.18
2023-04-28T18:30:28.784Z,6.23
2023-04-28T18:43:27.658Z,9.95
2023-04-28T18:47:23.342Z,7.15
2023-04-28T18:50:19.458Z,5.72
2023-04-28T19:07:25.908Z,9.30
2023-04-28T19:10:35.324Z,11.07
2023-04-28T19:17:05.789Z,6.95
2023-04-28T19:19:51.654Z,6.40
2023-04-28T19:22:53.862Z,7.53
2023-04-28T19:26:00.236Z,13.50
2023-04-28T19:29:29.942Z,7.70
2023-04-28T19:35:22.795Z,7.10
2023-04-28T19:38:23.740Z,7.87
2023-04-28T19:41:48.753Z,5.85
2023-04-28T19:44:59.444Z,5.93
2023-04-28T19:51:32.081Z,8.00
2023-04-28T19:57:22.379Z,7.80
2023-04-28T20:06:10.991Z,11.18
2023-04-28T20:09:00.977Z,10.00
2023-04-28T20:12:21.282Z,12.25
2023-04-28T20:18:53.671Z,11.52
2023-04-28T20:22:13.726Z,11.75
2023-04-28T20:25:09.425Z,12.85
2023-04-28T20:28:29.896Z,11.38
2023-04-28T20:37:53.724Z,10.52
2023-04-28T20:40:50.971Z,11.50
2023-04-28T20:43:47.614Z,11.80
2023-04-28T20:46:31.956Z,10.68
2023-04-28T20:49:35.399Z,14.75
2023-04-28T20:52:29.423Z,9.13
2023-04-28T20:55:28.741Z,11.48
2023-04-28T20:58:11.206Z,8.45
2023-04-28T21:04:17.484Z,14.18
2023-04-28T21:07:31.896Z,12.20
2023-04-28T21:10:32.939Z,10.13
2023-04-28T21:13:29.347Z,8.82
2023-04-28T21:16:10.923Z,12.52
2023-04-28T21:19:13.891Z,11.60
2023-04-28T21:22:17.119Z,9.98
2023-04-28T21:24:53.790Z,12.98
2023-04-28T21:27:40.058Z,12.10
2023-04-28T21:30:32.014Z,9.43
2023-04-28T21:33:18.769Z,10.20
2023-04-28T21:35:57.217Z,10.77
2023-04-28T21:38:46.229Z,10.70
2023-04-28T21:41:24.286Z,16.95
2023-04-28T21:44:31.924Z,7.10
2023-04-28T21:47:29.192Z,9.63
2023-04-28T21:53:17.217Z,9.13
2023-04-28T21:56:19.072Z,11.10
2023-04-28T21:59:05.004Z,10.95
2023-04-28T22:04:55.875Z,10.20
2023-04-28T22:07:56.640Z,10.30
2023-04-28T22:10:41.226Z,10.13
2023-04-28T22:13:33.266Z,9.57
2023-04-28T22:16:19.054Z,10.63
2023-04-28T22:19:06.020Z,11.40
2023-04-28T22:22:05.187Z,10.75
2023-04-28T22:27:27.845Z,13.38
2023-04-28T22:30:29.881Z,10.30
2023-04-28T22:33:24.685Z,11.50
2023-04-28T22:36:07.405Z,7.37
2023-04-28T22:39:02.454Z,13.15
2023-04-28T22:41:47.733Z,9.75
2023-04-28T22:44:41.929Z,9.30
2023-04-28T22:47:30.146Z,12.50
2023-04-28T22:50:16.442Z,10.73
2023-04-28T22:53:23.242Z,12.23
2023-04-28T22:56:08.805Z,11.10
2023-04-28T23:02:13.212Z,10.65
2023-04-28T23:04:54.524Z,8.50
2023-04-28T23:07:52.554Z,10.40
2023-04-28T23:10:36.659Z,8.48
2023-04-28T23:16:00.799Z,8.20
2023-04-28T23:18:43.095Z,11.47
2023-04-28T23:21:33.714Z,10.13
2023-04-28T23:24:31.301Z,10.32
2023-04-28T23:27:24.342Z,13.57
2023-04-28T23:30:16.517Z,15.85
2023-04-28T23:33:10.903Z,10.30
2023-04-28T23:35:56.082Z,8.18
2023-04-28T23:38:41.310Z,8.55
2023-04-28T23:41:21.465Z,8.73
2023-04-28T23:44:11.186Z,7.53
2023-04-28T23:46:57.123Z,9.90
2023-04-28T23:49:34.463Z,9.57
2023-04-28T23:52:15.903Z,10.00
2023-04-28T23:55:10.981Z,8.70
2023-04-28T23:57:54.021Z,9.03
